Time;durP1;ratioP1;P1;durP2;ratioP2;P2;SDS_P1;SDS_P2;PMS_P1;PMS_P2;Temp;Humidity;BMP_temperature;BMP_pressure;BME280_temperature;BME280_humidity;BME280_pressure;Samples;Min_cycle;Max_cycle;Signal;HPM_P1;HPM_P2
2022/03/13 00:00:36;;;;;;;22.45;4.32;;;;;;;17.31;41.73;99119.38;5075266;28;20043;-77
2022/03/13 00:03:09;;;;;;;26.83;3.90;;;;;;;16.74;42.91;99107.56;5075217;28;20028;-78
2022/03/13 00:05:39;;;;;;;21.52;4.15;;;;;;;17.11;42.12;99099.69;5075205;28;20024;-77
2022/03/13 00:08:16;;;;;;;18.88;4.80;;;;;;;17.22;42.10;99090.59;5075045;28;20082;-78
2022/03/13 00:10:44;;;;;;;19.50;4.57;;;;;;;17.23;41.96;99105.94;5075093;28;20040;-78
2022/03/13 00:13:14;;;;;;;27.08;5.50;;;;;;;17.53;41.35;99099.97;5075030;28;20017;-78
2022/03/13 00:15:40;;;;;;;16.50;4.00;;;;;;;17.33;41.90;99099.66;5075014;28;20029;-78
2022/03/13 00:18:08;;;;;;;18.55;4.38;;;;;;;17.44;41.59;99092.09;5074868;28;20060;-77
2022/03/13 00:20:34;;;;;;;24.55;4.65;;;;;;;17.33;42.26;99096.88;5074887;28;20021;-77
2022/03/13 00:22:59;;;;;;;21.65;5.68;;;;;;;17.40;42.06;99091.34;5074927;28;20066;-77
2022/03/13 00:25:26;;;;;;;18.38;4.55;;;;;;;17.60;41.95;99081.41;5074870;28;20026;-78
2022/03/13 00:27:52;;;;;;;26.20;5.10;;;;;;;17.47;42.66;99083.03;5074095;28;20020;-77
2022/03/13 00:30:17;;;;;;;33.03;6.55;;;;;;;17.53;43.07;99083.41;5073460;28;20024;-79
2022/03/13 00:32:44;;;;;;;23.77;5.57;;;;;;;17.86;42.20;99066.34;5074742;28;20020;-77
2022/03/13 00:35:11;;;;;;;23.73;6.07;;;;;;;17.37;43.87;99067.28;5074669;28;20020;-77
2022/03/13 00:37:37;;;;;;;28.27;5.70;;;;;;;17.23;44.33;99051.56;5074483;28;20040;-77
2022/03/13 00:40:03;;;;;;;28.23;6.88;;;;;;;17.80;42.92;99050.59;5074552;28;20107;-77
2022/03/13 00:42:29;;;;;;;30.98;5.97;;;;;;;17.68;43.24;99040.72;5074527;28;20031;-78
2022/03/13 00:44:55;;;;;;;26.35;5.93;;;;;;;18.01;42.60;99028.38;5073241;28;20033;-77
2022/03/13 00:47:21;;;;;;;28.42;6.50;;;;;;;17.84;42.57;99021.75;5056388;28;20029;-76
2022/03/13 00:49:49;;;;;;;29.30;6.95;;;;;;;17.88;42.63;99039.09;5073047;28;20070;-77
2022/03/13 00:52:16;;;;;;;28.17;7.25;;;;;;;17.47;43.81;99038.88;5074354;28;20050;-76
2022/03/13 00:54:41;;;;;;;22.52;6.38;;;;;;;17.81;42.96;99055.69;5074306;28;20119;-76
2022/03/13 00:57:07;;;;;;;24.92;5.95;;;;;;;17.59;43.65;99026.56;5073743;28;20123;-77
2022/03/13 00:59:33;;;;;;;25.75;7.47;;;;;;;17.80;43.25;99014.66;5073798;28;20043;-76
2022/03/13 01:01:58;;;;;;;29.35;6.47;;;;;;;17.95;43.02;99029.97;5056078;28;20031;-76
2022/03/13 01:04:24;;;;;;;29.98;7.63;;;;;;;17.93;43.29;99016.56;5072842;28;20486;-77
2022/03/13 01:06:50;;;;;;;32.78;7.60;;;;;;;18.24;42.41;99033.34;5074017;28;20395;-77
2022/03/13 01:09:17;;;;;;;29.08;7.25;;;;;;;17.90;43.04;99013.81;5072748;28;20390;-78
2022/03/13 01:11:43;;;;;;;21.80;6.15;;;;;;;18.23;42.50;99024.28;5055790;28;20697;-78
2022/03/13 01:14:09;;;;;;;27.20;6.88;;;;;;;17.90;43.08;99030.38;5055617;28;20050;-78
2022/03/13 01:16:40;;;;;;;37.88;11.18;;;;;;;18.00;42.57;99018.50;5055675;28;20035;-78
2022/03/13 01:19:07;;;;;;;41.50;7.68;;;;;;;18.30;42.09;99017.91;5073841;28;20029;-78
2022/03/13 01:21:37;;;;;;;32.58;7.00;;;;;;;17.92;42.56;99005.94;5073633;28;20029;-77
2022/03/13 01:24:05;;;;;;;;;;;;;;;17.65;42.98;99006.41;5056468;28;20032;-78
2022/03/13 01:26:37;;;;;;;31.63;6.72;;;;;;;17.62;43.18;98993.44;5055705;28;19909;-78
2022/03/13 01:29:05;;;;;;;28.75;7.70;;;;;;;17.71;42.87;98984.72;5055677;28;20039;-77
2022/03/13 01:31:35;;;;;;;32.78;7.80;;;;;;;17.45;43.17;98986.00;5055577;28;20536;-77
2022/03/13 01:34:01;;;;;;;23.50;7.07;;;;;;;17.63;42.65;98983.16;5073540;28;20467;-78
2022/03/13 01:36:28;;;;;;;25.38;6.95;;;;;;;17.72;42.01;98989.06;5073339;28;20154;-79
2022/03/13 01:38:56;;;;;;;27.17;6.88;;;;;;;17.57;42.48;98968.19;5054322;28;20024;-78
2022/03/13 01:41:32;;;;;;;24.83;7.28;;;;;;;17.53;42.58;98973.72;5073355;28;20107;-78
2022/03/13 01:43:59;;;;;;;25.20;6.30;;;;;;;17.79;41.82;98979.94;5073350;28;20096;-78
2022/03/13 01:46:26;;;;;;;32.60;7.43;;;;;;;17.87;41.69;98973.19;5073311;28;20017;-77
2022/03/13 01:48:55;;;;;;;39.00;7.13;;;;;;;17.62;42.14;98965.81;5073182;28;20020;-77
2022/03/13 01:51:22;;;;;;;27.45;7.20;;;;;;;17.55;42.38;98970.59;5073109;28;20016;-77
2022/03/13 01:53:51;;;;;;;28.98;6.72;;;;;;;17.53;42.37;98959.13;5073129;28;20540;-77
2022/03/13 01:56:17;;;;;;;37.00;7.72;;;;;;;17.58;42.34;98959.50;5072917;28;20431;-78
2022/03/13 01:58:43;;;;;;;27.63;6.30;;;;;;;17.49;42.41;98970.22;5072822;28;20056;-78
2022/03/13 02:01:08;;;;;;;29.40;7.65;;;;;;;17.22;43.18;98949.81;5071698;28;20028;-77
2022/03/13 02:03:34;;;;;;;38.70;8.30;;;;;;;16.96;43.96;98962.16;5072912;28;20383;-77
2022/03/13 02:06:00;;;;;;;25.80;7.75;;;;;;;17.19;43.31;98949.44;5071644;28;20044;-77
2022/03/13 02:08:26;;;;;;;40.78;9.77;;;;;;;17.29;43.26;98947.03;5072844;28;20082;-77
2022/03/13 02:10:52;;;;;;;38.10;8.90;;;;;;;17.29;43.27;98931.25;5072859;28;20044;-78
2022/03/13 02:13:20;;;;;;;35.85;8.27;;;;;;;17.78;42.22;98934.19;5072821;28;20025;-78
2022/03/13 02:15:46;;;;;;;28.20;6.72;;;;;;;17.55;42.51;98932.72;5072604;28;20059;-78
2022/03/13 02:18:12;;;;;;;26.55;6.75;;;;;;;17.37;43.13;98926.47;5072695;28;20039;-77
2022/03/13 02:20:41;;;;;;;32.88;8.82;;;;;;;17.87;41.78;98931.75;5072722;28;20029;-78
2022/03/13 02:23:21;;;;;;;25.23;7.88;;;;;;;17.74;41.87;98915.63;5072704;28;20146;-78
2022/03/13 02:25:49;;;;;;;40.28;9.10;;;;;;;17.43;42.69;98928.44;5072756;28;20028;-77
2022/03/13 02:28:19;;;;;;;30.33;7.15;;;;;;;17.92;41.61;98917.50;5072509;28;20029;-77
2022/03/13 02:30:45;;;;;;;33.35;9.40;;;;;;;17.78;41.83;98912.09;5072618;28;20391;-78
2022/03/13 02:33:11;;;;;;;33.83;8.43;;;;;;;17.88;41.42;98898.19;5072519;28;20032;-77
2022/03/13 02:35:37;;;;;;;23.60;7.30;;;;;;;17.41;42.94;98883.09;5072495;28;20025;-77
2022/03/13 02:38:03;;;;;;;33.08;8.60;;;;;;;17.41;42.75;98916.22;5072424;28;20111;-79
2022/03/13 02:40:29;;;;;;;23.02;7.43;;;;;;;17.25;43.16;98896.59;5072450;28;20386;-77
2022/03/13 02:42:56;;;;;;;29.42;6.20;;;;;;;17.23;43.12;98885.16;5072440;28;20021;-77
2022/03/13 02:45:31;;;;;;;37.72;8.60;;;;;;;17.41;43.23;98896.91;5072429;28;20098;-78
2022/03/13 02:47:58;;;;;;;38.28;10.18;;;;;;;17.58;42.67;98871.16;5072317;28;20029;-78
2022/03/13 02:50:24;;;;;;;33.78;8.35;;;;;;;17.65;42.57;98868.34;5071932;28;20375;-77
2022/03/13 02:52:50;;;;;;;36.63;8.02;;;;;;;17.47;42.89;98859.41;5069864;28;20024;-78
2022/03/13 02:55:16;;;;;;;33.63;6.85;;;;;;;17.41;43.13;98853.50;5072279;28;20032;-77
2022/03/13 02:57:41;;;;;;;34.83;7.88;;;;;;;17.58;42.55;98859.31;5071927;28;20514;-79
2022/03/13 03:00:08;;;;;;;30.75;8.15;;;;;;;17.70;42.65;98869.88;5072252;28;20028;-77
2022/03/13 03:02:35;;;;;;;33.03;9.13;;;;;;;17.49;43.23;98862.53;5072233;28;20020;-77
2022/03/13 03:05:06;;;;;;;35.83;9.02;;;;;;;17.64;43.15;98858.47;5071949;28;20043;-77
2022/03/13 03:07:32;;;;;;;36.55;8.50;;;;;;;17.86;42.50;98864.66;5072219;28;20036;-78
2022/03/13 03:09:57;;;;;;;26.27;7.10;;;;;;;17.96;42.60;98849.97;5072220;28;20146;-78
2022/03/13 03:12:23;;;;;;;27.83;6.82;;;;;;;17.55;43.49;98841.59;5054313;28;20498;-78
2022/03/13 03:14:49;;;;;;;31.67;8.43;;;;;;;17.73;43.00;98836.72;5072166;28;20052;-77
2022/03/13 03:17:15;;;;;;;31.50;8.25;;;;;;;17.47;43.72;98838.09;5072028;28;20032;-79
2022/03/13 03:19:41;;;;;;;31.77;8.13;;;;;;;17.51;43.76;98840.81;5072054;28;20021;-77
2022/03/13 03:22:06;;;;;;;31.90;9.43;;;;;;;17.58;43.51;98851.03;5072047;28;20035;-77
2022/03/13 03:24:33;;;;;;;37.30;8.00;;;;;;;17.36;43.99;98858.66;5072092;28;20066;-78
2022/03/13 03:26:58;;;;;;;36.45;8.98;;;;;;;17.42;43.70;98844.03;5071978;28;20116;-77
2022/03/13 03:29:25;;;;;;;29.42;8.15;;;;;;;17.44;43.74;98843.63;5071983;28;20107;-77
2022/03/13 03:31:52;;;;;;;36.70;8.18;;;;;;;17.73;43.11;98836.72;5071984;28;20360;-78
2022/03/13 03:34:20;;;;;;;39.80;9.90;;;;;;;17.86;42.42;98827.97;5053972;28;20040;-77
2022/03/13 03:36:56;;;;;;;39.10;9.68;;;;;;;17.72;42.91;98824.13;5071820;28;20054;-77
2022/03/13 03:39:23;;;;;;;32.85;7.65;;;;;;;17.45;43.57;98828.63;5071959;28;20024;-78
2022/03/13 03:41:50;;;;;;;34.90;8.70;;;;;;;17.35;43.43;98826.72;5071855;28;20056;-77
2022/03/13 03:44:16;;;;;;;43.45;9.93;;;;;;;17.27;43.61;98817.72;5071882;28;20031;-77
2022/03/13 03:46:44;;;;;;;37.20;9.68;;;;;;;17.22;43.38;98820.88;5071842;28;20095;-77
2022/03/13 03:49:10;;;;;;;38.03;8.18;;;;;;;17.56;42.92;98825.81;5071891;28;20047;-77
2022/03/13 03:51:36;;;;;;;41.45;10.20;;;;;;;17.48;43.19;98794.69;5071803;28;20028;-77
2022/03/13 03:54:03;;;;;;;41.65;11.98;;;;;;;17.79;42.32;98809.47;5071792;28;20021;-77
2022/03/13 03:56:29;;;;;;;38.05;9.55;;;;;;;17.63;42.80;98818.25;5071348;28;20028;-77
2022/03/13 03:58:54;;;;;;;47.22;10.02;;;;;;;17.50;43.01;98827.41;5072007;28;20024;-78
2022/03/13 04:01:20;;;;;;;40.25;9.32;;;;;;;17.64;42.88;98819.81;5071498;28;20468;-78
2022/03/13 04:03:46;;;;;;;45.33;10.60;;;;;;;17.78;42.42;98804.34;5074995;28;20077;-77
2022/03/13 04:06:12;;;;;;;33.30;9.30;;;;;;;17.46;43.24;98800.63;5075253;28;20021;-77
2022/03/13 04:08:38;;;;;;;33.33;7.40;;;;;;;17.65;42.61;98802.06;5075174;28;20025;-77
2022/03/13 04:11:03;;;;;;;31.92;8.50;;;;;;;17.52;43.13;98808.47;5075158;28;20439;-78
2022/03/13 04:13:29;;;;;;;29.48;7.93;;;;;;;17.42;43.29;98799.84;5075126;28;20017;-79
2022/03/13 04:15:55;;;;;;;33.00;8.88;;;;;;;17.27;43.84;98808.66;5074991;28;20028;-78
2022/03/13 04:18:22;;;;;;;26.17;6.95;;;;;;;17.32;43.25;98786.16;5074970;28;20494;-77
2022/03/13 04:20:48;;;;;;;24.48;6.75;;;;;;;17.57;42.55;98805.28;5074984;28;20024;-77
2022/03/13 04:23:13;;;;;;;31.55;6.13;;;;;;;17.63;42.20;98792.63;5074884;28;20028;-80
2022/03/13 04:25:39;;;;;;;29.55;6.57;;;;;;;17.49;42.14;98801.78;5074853;28;20028;-77
2022/03/13 04:28:05;;;;;;;36.55;9.27;;;;;;;17.37;42.77;98800.28;5074797;28;20043;-77
2022/03/13 04:30:31;;;;;;;33.85;8.35;;;;;;;17.20;43.35;98790.94;5074803;28;20479;-77
2022/03/13 04:33:00;;;;;;;44.67;9.73;;;;;;;17.39;43.15;98783.34;5074727;28;20039;-77
2022/03/13 04:35:26;;;;;;;32.55;7.60;;;;;;;17.25;43.23;98761.34;5074669;28;20479;-78
2022/03/13 04:37:52;;;;;;;40.42;9.65;;;;;;;17.39;43.12;98786.88;5074520;28;20033;-77
2022/03/13 04:40:18;;;;;;;42.17;9.05;;;;;;;17.94;42.01;98769.47;5056553;28;20028;-78
2022/03/13 04:42:43;;;;;;;27.52;8.38;;;;;;;17.58;42.67;98771.72;5074569;28;20052;-77
2022/03/13 04:45:11;;;;;;;34.92;8.32;;;;;;;17.70;42.00;98767.69;5074530;28;20048;-77
2022/03/13 04:47:37;;;;;;;43.20;10.35;;;;;;;17.30;43.12;98788.50;5074422;28;20021;-77
2022/03/13 04:50:03;;;;;;;38.63;9.23;;;;;;;17.47;42.88;98787.63;5074373;28;20094;-77
2022/03/13 04:52:28;;;;;;;46.28;8.52;;;;;;;17.41;42.67;98767.16;5074293;28;20031;-77
2022/03/13 04:54:54;;;;;;;42.63;9.77;;;;;;;17.47;42.54;98768.28;5074355;28;20021;-77
2022/03/13 04:57:20;;;;;;;37.00;8.45;;;;;;;17.32;42.92;98775.91;5073806;28;20403;-77
2022/03/13 04:59:46;;;;;;;32.90;7.70;;;;;;;16.89;43.99;98764.34;5074258;28;20048;-79
2022/03/13 05:02:12;;;;;;;30.45;7.65;;;;;;;17.32;42.85;98805.47;5074085;28;20109;-78
2022/03/13 05:04:38;;;;;;;19.73;7.28;;;;;;;17.32;42.91;98786.16;5074378;28;20094;-78
2022/03/13 05:07:06;;;;;;;34.92;8.82;;;;;;;17.30;42.69;98767.22;5074033;28;20032;-78
2022/03/13 05:09:32;;;;;;;33.15;8.60;;;;;;;17.54;42.39;98773.75;5074004;28;20218;-78
2022/03/13 05:12:00;;;;;;;35.95;9.02;;;;;;;17.13;43.39;98782.72;5073941;28;20025;-77
2022/03/13 05:14:26;;;;;;;35.72;9.27;;;;;;;17.67;42.26;98779.53;5073659;28;20024;-77
2022/03/13 05:16:52;;;;;;;29.27;8.80;;;;;;;17.28;43.22;98768.81;5073675;28;20190;-78
2022/03/13 05:19:17;;;;;;;39.10;7.32;;;;;;;17.43;42.73;98792.38;5073898;28;20035;-77
2022/03/13 05:21:43;;;;;;;34.47;8.15;;;;;;;17.64;42.36;98783.91;5073632;28;20467;-78
2022/03/13 05:24:09;;;;;;;38.08;9.48;;;;;;;17.72;42.09;98779.13;5073705;28;20025;-78
2022/03/13 05:26:34;;;;;;;38.40;8.32;;;;;;;17.16;43.37;98781.13;5073684;28;20432;-78
2022/03/13 05:29:01;;;;;;;36.20;8.20;;;;;;;17.37;43.36;98771.91;5073655;28;20421;-78
2022/03/13 05:31:27;;;;;;;30.92;6.78;;;;;;;17.20;43.45;98779.91;5073552;28;20055;-80
2022/03/13 05:33:52;;;;;;;33.97;8.13;;;;;;;17.29;43.12;98771.16;5073500;28;20025;-78
2022/03/13 05:36:18;;;;;;;33.60;9.02;;;;;;;17.20;43.35;98766.09;5073421;28;20069;-78
2022/03/13 05:38:44;;;;;;;31.33;7.93;;;;;;;16.93;43.99;98778.91;5073368;28;20029;-78
2022/03/13 05:41:10;;;;;;;32.78;9.30;;;;;;;17.44;42.79;98777.38;5073429;28;20023;-78
2022/03/13 05:43:36;;;;;;;33.00;10.07;;;;;;;17.52;42.60;98767.03;5073378;28;20024;-78
2022/03/13 05:46:02;;;;;;;36.15;8.10;;;;;;;17.45;42.51;98768.66;5073345;28;20074;-78
2022/03/13 05:48:30;;;;;;;36.10;7.35;;;;;;;17.70;41.78;98784.25;5073266;28;20491;-78
2022/03/13 05:50:56;;;;;;;27.10;7.18;;;;;;;17.59;41.86;98762.25;5073180;28;20108;-78
2022/03/13 05:53:21;;;;;;;28.20;7.95;;;;;;;17.19;42.84;98767.28;5073211;28;20099;-78
2022/03/13 05:55:47;;;;;;;24.10;6.82;;;;;;;17.38;42.13;98763.22;5073061;28;20023;-78
2022/03/13 05:58:13;;;;;;;23.08;6.47;;;;;;;17.42;42.42;98786.06;5072827;28;20052;-77
2022/03/13 06:00:40;;;;;;;33.97;7.07;;;;;;;17.27;42.64;98768.03;5073103;28;20542;-78
2022/03/13 06:03:06;;;;;;;37.28;8.07;;;;;;;17.45;42.22;98779.72;5072968;28;20024;-77
2022/03/13 06:05:34;;;;;;;24.25;7.40;;;;;;;17.33;42.55;98782.19;5073000;28;20033;-79
2022/03/13 06:08:00;;;;;;;35.63;8.50;;;;;;;17.25;43.02;98783.44;5072924;28;20112;-78
2022/03/13 06:10:26;;;;;;;29.88;8.57;;;;;;;17.20;43.37;98774.38;5072870;28;20051;-80
2022/03/13 06:12:52;;;;;;;44.55;10.20;;;;;;;17.62;42.75;98811.16;5072865;28;20398;-78
2022/03/13 06:15:18;;;;;;;44.40;9.40;;;;;;;17.31;43.66;98796.41;5072756;28;20031;-78
2022/03/13 06:17:46;;;;;;;37.38;9.45;;;;;;;17.26;43.77;98790.53;5072734;28;20040;-79
2022/03/13 06:20:14;;;;;;;43.05;9.35;;;;;;;17.06;44.24;98785.50;5054933;28;20486;-78
2022/03/13 06:22:42;;;;;;;35.15;8.68;;;;;;;17.32;43.71;98805.47;5072745;28;20073;-78
2022/03/13 06:25:09;;;;;;;35.35;10.80;;;;;;;16.87;44.82;98794.31;5072100;28;20079;-78
2022/03/13 06:27:35;;;;;;;32.80;8.15;;;;;;;17.25;44.11;98802.75;5072668;28;20020;-78
2022/03/13 06:30:13;;;;;;;31.80;8.27;;;;;;;17.55;43.31;98802.16;5072607;28;20029;-78
2022/03/13 06:32:43;;;;;;;30.20;7.75;;;;;;;17.88;42.54;98801.47;5072668;28;20020;-78
2022/03/13 06:35:10;;;;;;;27.83;8.18;;;;;;;17.80;42.38;98805.50;5072543;28;20025;-78
2022/03/13 06:37:40;;;;;;;32.97;9.05;;;;;;;17.52;42.88;98823.06;5054443;28;20024;-78
2022/03/13 06:40:06;;;;;;;32.28;7.63;;;;;;;17.48;42.88;98812.03;5072509;28;20097;-78
2022/03/13 06:42:33;;;;;;;31.88;8.43;;;;;;;16.94;44.27;98837.63;5072492;28;20032;-78
2022/03/13 06:44:59;;;;;;;33.47;7.90;;;;;;;17.13;43.78;98815.81;5072525;28;20494;-78
2022/03/13 06:47:24;;;;;;;36.78;8.65;;;;;;;17.10;43.83;98800.09;5072483;28;20024;-78
2022/03/13 06:49:50;;;;;;;31.92;6.97;;;;;;;17.38;42.82;98785.31;5072418;28;20025;-78
2022/03/13 06:52:16;;;;;;;34.35;9.40;;;;;;;17.47;42.96;98796.69;5072392;28;20020;-78
2022/03/13 06:54:43;;;;;;;32.08;8.85;;;;;;;17.47;43.12;98809.69;5072366;28;20021;-78
2022/03/13 06:57:09;;;;;;;37.60;8.85;;;;;;;17.56;42.95;98834.88;5071900;28;20135;-78
2022/03/13 06:59:34;;;;;;;28.83;6.20;;;;;;;17.29;43.60;98814.53;5072277;28;20024;-78
2022/03/13 07:02:00;;;;;;;40.42;11.27;;;;;;;17.21;43.92;98827.59;5072278;28;20119;-79
2022/03/13 07:04:26;;;;;;;26.67;6.35;;;;;;;16.79;44.94;98820.34;5072155;28;20132;-78
2022/03/13 07:06:51;;;;;;;39.70;7.93;;;;;;;17.12;44.42;98821.75;5072408;28;20074;-79
2022/03/13 07:09:17;;;;;;;38.53;12.70;;;;;;;17.52;43.55;98822.28;5072314;28;20024;-79
2022/03/13 07:11:45;;;;;;;38.92;7.57;;;;;;;17.21;44.17;98819.31;5072159;28;20433;-78
2022/03/13 07:14:11;;;;;;;25.83;7.32;;;;;;;17.52;43.62;98825.03;5072100;28;20013;-78
2022/03/13 07:16:37;;;;;;;28.95;8.38;;;;;;;17.15;44.37;98802.44;5054082;28;20421;-79
2022/03/13 07:19:03;;;;;;;35.78;7.45;;;;;;;17.48;43.52;98816.78;5072086;28;20107;-78
2022/03/13 07:21:29;;;;;;;27.70;7.22;;;;;;;16.90;45.15;98805.31;5072083;28;20445;-82
2022/03/13 07:23:54;;;;;;;33.55;6.13;;;;;;;17.45;43.54;98828.63;5071954;28;20028;-79
2022/03/13 07:26:20;;;;;;;37.17;7.03;;;;;;;17.48;43.56;98820.34;5072133;28;20028;-80
2022/03/13 07:28:46;;;;;;;37.83;8.13;;;;;;;17.71;43.17;98813.47;5054050;28;20025;-81
2022/03/13 07:31:12;;;;;;;27.50;6.60;;;;;;;17.00;44.60;98830.47;5072075;28;20028;-79
2022/03/13 07:33:37;;;;;;;40.67;8.52;;;;;;;17.41;43.70;98833.41;5072063;28;20379;-78
2022/03/13 07:36:03;;;;;;;35.10;8.07;;;;;;;17.99;42.13;98817.97;5072753;28;20024;-79
2022/03/13 07:38:29;;;;;;;36.67;8.52;;;;;;;17.52;43.56;98831.34;5075815;28;20029;-77
2022/03/13 07:40:55;;;;;;;27.20;6.60;;;;;;;17.33;43.81;98842.91;5075652;28;20467;-78
2022/03/13 07:43:21;;;;;;;27.13;7.68;;;;;;;17.66;43.01;98838.72;5075634;28;20098;-80
2022/03/13 07:45:46;;;;;;;24.27;5.75;;;;;;;17.55;43.02;98865.66;5075605;28;20048;-79
2022/03/13 07:48:12;;;;;;;29.73;6.90;;;;;;;17.64;43.21;98855.72;5075696;28;20036;-78
2022/03/13 07:50:38;;;;;;;27.52;5.28;;;;;;;17.34;43.71;98847.25;5075586;28;20023;-81
2022/03/13 07:53:04;;;;;;;24.80;5.88;;;;;;;17.85;42.61;98856.78;5055906;28;20024;-83
2022/03/13 07:55:30;;;;;;;23.00;5.03;;;;;;;18.05;42.14;98863.28;5075173;28;20020;-81
2022/03/13 07:57:55;;;;;;;32.38;6.38;;;;;;;17.83;42.83;98873.75;5074939;28;20410;-80
2022/03/13 08:00:22;;;;;;;28.15;6.72;;;;;;;17.93;42.51;98877.63;5057266;28;20074;-75
2022/03/13 08:02:49;;;;;;;26.95;6.43;;;;;;;17.98;42.22;98886.25;5074817;28;20024;-80
2022/03/13 08:05:18;;;;;;;22.65;6.28;;;;;;;17.81;42.59;98901.00;5057257;28;20028;-81
2022/03/13 08:07:44;;;;;;;20.92;6.07;;;;;;;18.04;42.41;98908.72;5057456;28;20546;-79
2022/03/13 08:10:13;;;;;;;24.83;6.57;;;;;;;18.04;42.52;98900.41;5071976;28;20036;-80
2022/03/13 08:12:39;;;;;;;31.85;7.43;;;;;;;17.91;42.91;98896.56;5046912;28;20059;-81
2022/03/13 08:15:09;;;;;;;22.17;6.50;;;;;;;18.11;42.56;98892.06;5068268;28;20056;-78
2022/03/13 08:17:35;;;;;;;23.35;4.90;;;;;;;18.24;42.61;98909.72;5074921;28;20032;-77
2022/03/13 08:20:03;;;;;;;18.30;5.05;;;;;;;17.77;43.41;98896.72;5074848;28;20036;-78
2022/03/13 08:22:30;;;;;;;25.85;7.45;;;;;;;18.04;42.73;98914.25;5055754;28;20015;-78
2022/03/13 08:24:55;;;;;;;22.83;5.45;;;;;;;18.17;42.46;98923.63;5072503;28;20510;-75
2022/03/13 08:27:22;;;;;;;21.95;6.80;;;;;;;18.42;41.88;98920.63;5067568;28;20083;-79
2022/03/13 08:29:48;;;;;;;30.45;6.38;;;;;;;18.15;42.65;98912.19;5069897;28;20084;-82
2022/03/13 08:32:16;;;;;;;23.23;4.65;;;;;;;18.15;42.64;98926.00;5073614;28;20024;-77
2022/03/13 08:34:42;;;;;;;21.90;5.45;;;;;;;18.15;43.07;98914.94;5056022;28;20043;-80
2022/03/13 08:37:10;;;;;;;28.65;6.68;;;;;;;17.87;43.83;98926.22;5073928;28;20021;-80
2022/03/13 08:39:35;;;;;;;28.70;5.10;;;;;;;18.04;43.62;98936.34;5050709;28;20128;-80
2022/03/13 08:42:02;;;;;;;23.77;5.95;;;;;;;18.43;42.78;98924.16;5066419;28;20466;-79
2022/03/13 08:44:28;;;;;;;18.58;5.68;;;;;;;18.34;43.19;98938.47;5063399;28;20032;-81
2022/03/13 08:46:53;;;;;;;20.80;5.68;;;;;;;18.66;42.88;98942.94;5068430;28;20090;-79
2022/03/13 08:49:19;;;;;;;22.00;4.82;;;;;;;18.77;43.04;98924.25;5068219;28;20111;-81
2022/03/13 08:51:44;;;;;;;17.58;3.97;;;;;;;18.61;43.20;98946.13;5064916;28;20605;-78
2022/03/13 08:54:10;;;;;;;21.50;4.60;;;;;;;19.02;42.70;98949.66;5053159;28;20407;-79
2022/03/13 08:56:36;;;;;;;15.93;4.07;;;;;;;19.05;42.78;98975.75;5037731;28;20037;-79
2022/03/13 08:59:02;;;;;;;14.10;4.47;;;;;;;19.41;42.03;98959.47;5035968;28;20600;-78
2022/03/13 09:01:28;;;;;;;16.70;4.45;;;;;;;19.11;42.64;98969.31;5053547;28;20511;-79
2022/03/13 09:03:54;;;;;;;17.98;4.28;;;;;;;19.48;41.65;98978.75;5037989;28;20100;-79
2022/03/13 09:06:21;;;;;;;18.20;4.18;;;;;;;19.63;41.49;98985.72;5038767;28;20029;-82
2022/03/13 09:08:47;;;;;;;24.90;6.40;;;;;;;19.37;41.71;98997.50;5058944;28;20489;-82
2022/03/13 09:11:14;;;;;;;24.42;6.13;;;;;;;19.68;41.28;99007.44;5042427;28;20059;-80
2022/03/13 09:13:39;;;;;;;19.17;5.45;;;;;;;19.74;40.92;99007.75;5044962;28;20059;-79
2022/03/13 09:16:07;;;;;;;17.27;4.95;;;;;;;19.83;40.87;99021.09;5053358;28;20044;-77
2022/03/13 09:18:33;;;;;;;18.35;4.47;;;;;;;19.89;40.69;99020.22;5062533;28;20064;-80
2022/03/13 09:20:59;;;;;;;25.08;6.38;;;;;;;19.93;40.75;99026.47;5060388;28;20447;-85
2022/03/13 09:23:26;;;;;;;19.33;4.32;;;;;;;19.94;40.48;99033.59;5042197;28;20377;-80
2022/03/13 09:25:55;;;;;;;20.10;4.95;;;;;;;19.82;40.59;99036.94;5061606;28;20064;-81
2022/03/13 09:28:22;;;;;;;17.13;4.80;;;;;;;19.78;40.70;99043.72;5064542;28;20033;-79
2022/03/13 09:30:48;;;;;;;30.30;5.75;;;;;;;20.02;40.22;99036.25;5061204;28;20082;-78
2022/03/13 09:33:14;;;;;;;17.13;4.53;;;;;;;20.02;40.15;99042.59;5051029;28;20020;-80
2022/03/13 09:35:41;;;;;;;23.30;6.15;;;;;;;20.12;39.97;99051.97;5040077;28;20075;-79
2022/03/13 09:38:07;;;;;;;19.80;4.60;;;;;;;20.05;40.10;99058.41;5062411;28;20032;-76
2022/03/13 09:40:33;;;;;;;18.60;4.40;;;;;;;19.95;40.34;99062.13;5038617;28;20028;-78
2022/03/13 09:43:04;;;;;;;17.15;4.85;;;;;;;19.93;40.17;99062.50;5041126;28;20033;-81
2022/03/13 09:45:31;;;;;;;14.90;4.13;;;;;;;20.01;40.11;99073.50;5062743;28;20047;-81
2022/03/13 09:47:57;;;;;;;18.77;5.00;;;;;;;20.13;39.92;99078.50;5062027;28;20071;-80
2022/03/13 09:50:23;;;;;;;17.25;4.43;;;;;;;19.98;40.29;99077.13;5058847;28;20526;-82
2022/03/13 09:52:49;;;;;;;11.40;3.65;;;;;;;20.29;39.75;99081.44;5059011;28;20064;-81
2022/03/13 09:55:16;;;;;;;11.85;3.47;;;;;;;20.14;40.13;99091.16;5059211;28;20040;-82
2022/03/13 09:57:43;;;;;;;15.63;3.30;;;;;;;20.47;39.50;99098.63;5056971;28;20052;-86
2022/03/13 10:00:13;;;;;;;13.25;3.28;;;;;;;20.56;39.39;99094.56;5040781;28;20166;-80
2022/03/13 10:02:39;;;;;;;17.73;3.90;;;;;;;20.52;40.01;99102.91;5044067;28;20441;-82
2022/03/13 10:05:10;;;;;;;12.05;3.20;;;;;;;20.77;39.62;99099.75;5042157;28;20035;-81
2022/03/13 10:08:00;;;;;;;16.35;4.65;;;;;;;21.03;39.07;99098.91;5052007;28;20126;-83
2022/03/13 10:10:29;;;;;;;8.45;2.55;;;;;;;21.13;39.31;99096.38;5036056;28;20029;-87
2022/03/13 10:12:55;;;;;;;9.65;2.78;;;;;;;21.08;39.27;99111.50;5048529;28;20025;-91
2022/03/13 10:15:21;;;;;;;6.95;2.63;;;;;;;21.51;38.44;99106.00;5051773;28;20021;-83
2022/03/13 10:17:48;;;;;;;6.07;1.90;;;;;;;21.39;38.26;99106.63;5042975;28;20032;-81
2022/03/13 10:20:23;;;;;;;11.98;2.05;;;;;;;21.66;37.85;99114.84;5059946;28;20027;-80
2022/03/13 10:23:01;;;;;;;4.90;1.70;;;;;;;21.74;37.51;99123.81;5062405;28;20128;-80
2022/03/13 10:25:34;;;;;;;10.02;2.10;;;;;;;22.01;37.51;99116.13;5059909;28;20056;-80
2022/03/13 10:28:24;;;;;;;14.43;3.47;;;;;;;22.03;37.46;99113.69;5037031;28;20428;-80
2022/03/13 10:30:59;;;;;;;12.52;3.58;;;;;;;21.96;37.10;99135.31;5055795;28;20032;-82
2022/03/13 10:33:27;;;;;;;14.63;2.33;;;;;;;22.06;36.83;99132.28;5053894;28;20028;-81
2022/03/13 10:36:14;;;;;;;13.45;2.97;;;;;;;22.28;36.21;99129.09;5055835;28;20085;-81
2022/03/13 10:38:41;;;;;;;7.07;2.45;;;;;;;22.22;36.34;99136.34;5068755;28;20064;-80
2022/03/13 10:41:12;;;;;;;9.93;2.78;;;;;;;22.41;35.82;99143.91;5053615;28;20060;-81
2022/03/13 10:43:49;;;;;;;7.75;2.30;;;;;;;22.16;36.34;99138.88;5071973;28;20483;-85
2022/03/13 10:46:25;;;;;;;11.65;4.00;;;;;;;21.80;36.51;99147.13;5055888;28;20024;-85
2022/03/13 10:48:52;;;;;;;9.93;2.13;;;;;;;22.15;36.03;99135.31;5043561;28;20087;-91
2022/03/13 10:51:35;;;;;;;8.07;2.25;;;;;;;22.18;36.11;99160.69;5039189;28;20032;-85
2022/03/13 10:54:05;;;;;;;6.78;2.45;;;;;;;22.28;35.66;99162.47;5054773;28;20122;-83
2022/03/13 10:56:31;;;;;;;;;;;;;;;22.27;35.87;99172.81;5058272;28;20386;-84
2022/03/13 10:58:59;;;;;;;9.38;2.25;;;;;;;22.50;35.44;99171.91;5079055;28;20010;-86
2022/03/13 11:01:27;;;;;;;9.27;2.63;;;;;;;22.13;36.23;99170.31;5093562;28;20032;-90
2022/03/13 11:04:06;;;;;;;9.68;2.17;;;;;;;22.20;35.83;99177.75;5092516;28;20024;-92
2022/03/13 11:06:32;;;;;;;11.10;2.83;;;;;;;22.51;35.33;99181.81;5091750;28;20099;-84
2022/03/13 11:09:00;;;;;;;11.15;2.85;;;;;;;22.43;35.45;99197.13;5093013;28;20090;-92
2022/03/13 11:11:28;;;;;;;11.35;3.17;;;;;;;22.32;35.29;99199.34;5077155;28;20482;-91
2022/03/13 11:13:59;;;;;;;16.55;3.88;;;;;;;22.18;35.67;99199.66;5079442;28;20024;-86
2022/03/13 11:16:29;;;;;;;11.63;2.63;;;;;;;22.16;35.57;99191.75;5079658;28;20028;-83
2022/03/13 11:19:08;;;;;;;16.42;3.47;;;;;;;22.21;35.97;99202.34;5071679;28;20094;-90
2022/03/13 11:21:36;;;;;;;17.70;3.10;;;;;;;22.38;35.89;99204.00;5074790;28;20031;-92
2022/03/13 11:24:03;;;;;;;13.70;2.83;;;;;;;22.33;35.91;99200.91;5039592;28;20037;-93
2022/03/13 11:26:31;;;;;;;16.00;3.92;;;;;;;22.19;36.15;99210.34;5048138;28;20084;-92